createdAt,value
2024-03-07T00:00:22.953Z,5.45
2024-03-07T00:02:52.952Z,5.20
2024-03-07T00:05:26.035Z,5.90
2024-03-07T00:07:54.867Z,5.35
2024-03-07T00:10:24.374Z,6.12
2024-03-07T00:12:52.209Z,5.47
2024-03-07T00:15:20.212Z,5.68
2024-03-07T00:17:47.880Z,5.40
2024-03-07T00:20:16.789Z,5.80
2024-03-07T00:22:45.313Z,6.47
2024-03-07T00:25:16.094Z,5.75
2024-03-07T00:27:46.503Z,5.80
2024-03-07T00:30:15.354Z,5.37
2024-03-07T00:32:43.148Z,5.60
2024-03-07T00:35:11.076Z,5.90
2024-03-07T00:37:39.137Z,5.85
2024-03-07T00:40:07.541Z,5.68
2024-03-07T00:42:35.581Z,5.47
2024-03-07T00:45:04.948Z,5.70
2024-03-07T00:47:33.388Z,5.80
2024-03-07T00:50:01.466Z,5.28
2024-03-07T00:52:29.523Z,5.50
2024-03-07T00:54:57.027Z,6.10
2024-03-07T00:57:24.920Z,5.87
2024-03-07T00:59:53.011Z,6.65
2024-03-07T01:02:20.858Z,7.18
2024-03-07T01:04:49.679Z,6.82
2024-03-07T01:07:17.684Z,7.30
2024-03-07T01:09:45.403Z,7.57
2024-03-07T01:12:13.516Z,8.68
2024-03-07T01:14:41.480Z,8.40
2024-03-07T01:17:09.752Z,8.55
2024-03-07T01:19:37.365Z,8.07
2024-03-07T01:22:06.701Z,7.32
2024-03-07T01:24:34.960Z,8.70
2024-03-07T01:27:02.837Z,8.43
2024-03-07T01:29:30.744Z,9.02
2024-03-07T01:31:58.872Z,8.27
2024-03-07T01:34:26.363Z,8.07
2024-03-07T01:36:54.348Z,8.30
2024-03-07T01:39:22.074Z,8.77
2024-03-07T01:41:50.109Z,10.20
2024-03-07T01:44:18.214Z,8.93
2024-03-07T01:46:46.527Z,9.15
2024-03-07T01:49:14.295Z,9.55
2024-03-07T01:51:42.313Z,10.38
2024-03-07T01:54:10.464Z,8.57
2024-03-07T01:56:38.343Z,9.77
2024-03-07T01:59:06.520Z,9.90
2024-03-07T02:01:34.493Z,9.73
2024-03-07T02:04:02.685Z,11.10
2024-03-07T02:06:30.609Z,9.23
2024-03-07T02:08:58.660Z,8.50
2024-03-07T02:11:26.712Z,8.93
2024-03-07T02:13:54.596Z,9.68
2024-03-07T02:16:22.199Z,8.95
2024-03-07T02:18:51.287Z,8.75
2024-03-07T02:21:19.163Z,8.10
2024-03-07T02:23:47.231Z,7.70
2024-03-07T02:26:15.334Z,7.32
2024-03-07T02:28:43.147Z,7.78
2024-03-07T02:31:10.887Z,6.72
2024-03-07T02:33:38.999Z,7.03
2024-03-07T02:36:06.930Z,7.87
2024-03-07T02:38:35.673Z,7.20
2024-03-07T02:41:03.911Z,7.68
2024-03-07T02:43:31.564Z,8.68
2024-03-07T02:45:59.044Z,8.90
2024-03-07T02:48:27.133Z,9.20
2024-03-07T02:50:54.984Z,9.63
2024-03-07T02:53:22.730Z,8.95
2024-03-07T02:55:50.844Z,8.65
2024-03-07T02:58:18.616Z,9.23
2024-03-07T03:00:46.357Z,7.90
2024-03-07T03:03:14.147Z,8.70
2024-03-07T03:05:42.006Z,8.70
2024-03-07T03:08:09.499Z,9.75
2024-03-07T03:10:37.616Z,10.20
2024-03-07T03:13:05.290Z,10.57
2024-03-07T03:15:32.779Z,10.43
2024-03-07T03:18:01.583Z,9.98
2024-03-07T03:20:36.455Z,8.75
2024-03-07T03:25:36.089Z,8.88
2024-03-07T03:28:04.980Z,8.00
2024-03-07T03:30:33.952Z,8.18
2024-03-07T03:33:01.874Z,7.80
2024-03-07T03:35:29.624Z,7.57
2024-03-07T03:37:57.437Z,8.13
2024-03-07T03:40:25.145Z,6.18
2024-03-07T03:42:52.990Z,6.50
2024-03-07T03:45:21.008Z,7.32
2024-03-07T03:47:49.248Z,6.97
2024-03-07T03:50:17.247Z,6.70
2024-03-07T03:52:45.529Z,5.97
2024-03-07T03:55:13.902Z,6.20
2024-03-07T03:57:43.297Z,6.40
2024-03-07T04:00:14.925Z,7.30
2024-03-07T04:02:49.998Z,6.35
2024-03-07T04:05:20.549Z,8.93
2024-03-07T04:07:49.106Z,9.38
2024-03-07T04:10:18.102Z,10.00
2024-03-07T04:12:46.664Z,10.00
2024-03-07T04:15:20.389Z,10.73
2024-03-07T04:17:49.436Z,9.88
2024-03-07T04:20:21.030Z,9.52
2024-03-07T04:22:50.548Z,9.30
2024-03-07T04:25:19.270Z,9.30
2024-03-07T04:27:47.033Z,9.45
2024-03-07T04:30:18.047Z,9.77
2024-03-07T04:32:46.398Z,9.90
2024-03-07T04:35:16.955Z,9.88
2024-03-07T04:37:46.816Z,10.23
2024-03-07T04:40:18.928Z,10.88
2024-03-07T04:42:51.965Z,10.15
2024-03-07T04:45:20.351Z,10.73
2024-03-07T04:47:49.598Z,10.57
2024-03-07T04:50:20.970Z,11.03
2024-03-07T04:52:50.509Z,10.68
2024-03-07T04:55:19.276Z,11.00
2024-03-07T04:57:47.172Z,11.20
2024-03-07T05:00:17.219Z,11.12
2024-03-07T05:02:49.240Z,10.67
2024-03-07T05:05:23.885Z,9.30
2024-03-07T05:07:53.248Z,8.80
2024-03-07T05:10:22.426Z,8.80
2024-03-07T05:12:50.345Z,8.27
2024-03-07T05:15:18.631Z,8.00
2024-03-07T05:17:47.235Z,8.13
2024-03-07T05:20:15.347Z,8.60
2024-03-07T05:22:51.762Z,8.35
2024-03-07T05:25:21.424Z,8.38
2024-03-07T05:27:52.457Z,8.30
2024-03-07T05:30:20.657Z,8.70
2024-03-07T05:32:49.330Z,8.75
2024-03-07T05:35:18.691Z,9.27
2024-03-07T05:37:48.895Z,9.13
2024-03-07T05:40:16.590Z,8.40
2024-03-07T05:42:44.346Z,7.97
2024-03-07T05:45:12.452Z,9.43
2024-03-07T05:47:40.450Z,8.55
2024-03-07T05:50:11.976Z,8.05
2024-03-07T05:52:39.777Z,8.10
2024-03-07T05:55:07.904Z,8.57
2024-03-07T05:57:35.682Z,8.82
2024-03-07T06:00:11.410Z,8.93
2024-03-07T06:02:40.780Z,8.85
2024-03-07T06:05:17.004Z,9.50
2024-03-07T06:07:47.050Z,9.57
2024-03-07T06:10:17.667Z,9.65
2024-03-07T06:12:56.966Z,10.23
2024-03-07T06:15:33.290Z,9.90
2024-03-07T06:18:01.161Z,9.83
2024-03-07T06:20:28.745Z,12.07
2024-03-07T06:22:58.228Z,11.20
2024-03-07T06:25:37.658Z,10.82
2024-03-07T06:28:12.856Z,11.07
2024-03-07T06:30:44.003Z,10.73
2024-03-07T06:33:12.766Z,9.30
2024-03-07T06:35:41.108Z,9.77
2024-03-07T06:38:10.020Z,10.65
2024-03-07T06:40:38.757Z,9.98
2024-03-07T06:43:07.896Z,9.33
2024-03-07T06:45:36.569Z,9.40
2024-03-07T06:48:08.289Z,10.57
2024-03-07T06:50:39.464Z,8.68
2024-03-07T06:53:08.804Z,9.82
2024-03-07T06:55:37.352Z,10.17
2024-03-07T06:58:05.957Z,9.68
2024-03-07T07:00:37.177Z,9.20
2024-03-07T07:03:05.322Z,9.15
2024-03-07T07:05:33.136Z,9.35
2024-03-07T07:08:02.135Z,9.20
2024-03-07T07:10:30.951Z,8.25
2024-03-07T07:12:58.479Z,8.85
2024-03-07T07:15:26.915Z,8.25
2024-03-07T07:17:54.603Z,8.38
2024-03-07T07:20:25.269Z,8.53
2024-03-07T07:22:54.285Z,8.45
2024-03-07T07:25:22.836Z,8.13
2024-03-07T07:27:52.176Z,7.95
2024-03-07T07:30:23.882Z,8.32
2024-03-07T07:32:52.889Z,8.43
2024-03-07T07:35:21.632Z,8.60
2024-03-07T07:37:50.835Z,9.10
2024-03-07T07:40:20.662Z,8.52
2024-03-07T07:42:50.228Z,8.32
2024-03-07T07:45:18.924Z,8.10
2024-03-07T07:47:50.258Z,7.60
2024-03-07T07:50:23.281Z,8.23
2024-03-07T07:52:55.789Z,7.72
2024-03-07T07:55:30.101Z,7.62
2024-03-07T07:57:59.176Z,6.90
2024-03-07T08:00:30.610Z,6.82
2024-03-07T08:03:10.578Z,4.57
2024-03-07T08:05:39.067Z,3.20
2024-03-07T08:08:12.397Z,2.28
2024-03-07T08:10:47.254Z,2.33
2024-03-07T08:13:15.783Z,2.10
2024-03-07T08:15:43.881Z,2.47
2024-03-07T08:18:12.572Z,3.72
2024-03-07T08:20:42.412Z,4.70
2024-03-07T08:23:11.181Z,3.33
2024-03-07T08:25:43.014Z,2.67
2024-03-07T08:28:11.072Z,2.40
2024-03-07T08:30:38.858Z,2.28
2024-03-07T08:33:07.379Z,2.62
2024-03-07T08:35:36.202Z,2.10
2024-03-07T08:38:04.309Z,2.37
2024-03-07T08:40:33.366Z,2.30
2024-03-07T08:43:02.529Z,2.10
2024-03-07T08:45:30.861Z,2.45
2024-03-07T08:47:59.922Z,2.37
2024-03-07T08:50:29.283Z,2.50
2024-03-07T08:52:57.445Z,2.50
2024-03-07T08:55:26.500Z,2.42
2024-03-07T08:57:54.834Z,2.67
2024-03-07T09:00:27.040Z,2.57
2024-03-07T09:03:01.959Z,2.28
2024-03-07T09:05:34.963Z,2.45
2024-03-07T09:08:04.634Z,2.35
2024-03-07T09:10:32.522Z,2.60
2024-03-07T09:13:00.533Z,2.30
2024-03-07T09:15:29.283Z,2.33
2024-03-07T09:17:57.322Z,2.30
2024-03-07T09:20:25.738Z,2.60
2024-03-07T09:22:56.553Z,2.20
2024-03-07T09:25:26.209Z,2.10
2024-03-07T09:27:55.933Z,2.42
2024-03-07T09:30:27.163Z,2.50
2024-03-07T09:32:56.507Z,2.70
2024-03-07T09:35:24.908Z,2.85
2024-03-07T09:37:52.612Z,2.50
2024-03-07T09:40:25.709Z,2.45
2024-03-07T09:42:55.491Z,2.20
2024-03-07T09:45:30.645Z,2.50
2024-03-07T09:47:59.275Z,2.95
2024-03-07T09:50:29.117Z,2.50
2024-03-07T09:52:57.609Z,2.28
2024-03-07T09:55:28.399Z,3.03
2024-03-07T09:57:58.297Z,2.90
2024-03-07T10:00:28.413Z,2.50
2024-03-07T10:03:07.868Z,2.47
2024-03-07T10:05:36.303Z,2.22
2024-03-07T10:08:04.321Z,2.47
2024-03-07T10:10:32.824Z,2.12
2024-03-07T10:13:01.516Z,2.37
2024-03-07T10:15:31.299Z,2.77
2024-03-07T10:18:00.024Z,2.20
2024-03-07T10:20:29.124Z,2.35
2024-03-07T10:23:01.758Z,2.70
2024-03-07T10:25:30.408Z,3.03
2024-03-07T10:27:59.565Z,2.87
2024-03-07T10:30:30.853Z,2.85
2024-03-07T10:33:01.855Z,2.62
2024-03-07T10:35:32.365Z,2.47
2024-03-07T10:38:08.672Z,2.87
2024-03-07T10:40:39.126Z,2.90
2024-03-07T10:43:11.233Z,2.70
2024-03-07T10:45:46.956Z,3.10
2024-03-07T10:48:19.561Z,2.60
2024-03-07T10:51:07.082Z,2.75
2024-03-07T10:53:53.605Z,2.67
2024-03-07T10:56:49.321Z,2.92
2024-03-07T10:59:21.651Z,2.72
2024-03-07T11:02:07.853Z,3.10
2024-03-07T11:04:36.138Z,3.08
2024-03-07T11:07:04.153Z,2.77
2024-03-07T11:09:34.504Z,3.33
2024-03-07T11:12:06.010Z,3.30
2024-03-07T11:14:36.639Z,3.03
2024-03-07T11:17:05.245Z,3.30
2024-03-07T11:19:37.711Z,3.20
2024-03-07T11:22:18.348Z,2.95
2024-03-07T11:25:08.271Z,3.17
2024-03-07T11:27:40.202Z,3.45
2024-03-07T11:30:11.694Z,3.67
2024-03-07T11:32:40.137Z,3.93
2024-03-07T11:35:17.378Z,3.65
2024-03-07T11:37:48.127Z,4.12
2024-03-07T11:40:22.192Z,3.67
2024-03-07T11:42:50.788Z,3.53
2024-03-07T11:45:26.109Z,3.63
2024-03-07T11:48:10.186Z,3.97
2024-03-07T11:50:41.452Z,4.30
2024-03-07T11:53:10.428Z,3.78
2024-03-07T11:55:59.786Z,3.87
2024-03-07T11:58:27.615Z,4.00
2024-03-07T12:00:55.259Z,3.95
2024-03-07T12:03:24.015Z,4.25
2024-03-07T12:05:55.614Z,3.70
2024-03-07T12:08:25.068Z,4.25
2024-03-07T12:10:58.701Z,4.00
2024-03-07T12:13:28.820Z,4.62
2024-03-07T12:15:59.566Z,4.43
2024-03-07T12:18:28.360Z,4.35
2024-03-07T12:20:57.161Z,4.70
2024-03-07T12:23:27.600Z,3.53
2024-03-07T12:26:03.347Z,3.90
2024-03-07T12:28:34.953Z,3.78
2024-03-07T12:31:05.137Z,3.58
2024-03-07T12:33:34.148Z,4.03
2024-03-07T12:36:08.056Z,4.30
2024-03-07T12:38:38.475Z,4.18
2024-03-07T12:41:18.212Z,4.12
2024-03-07T12:43:47.192Z,4.15
2024-03-07T12:46:16.800Z,4.05
2024-03-07T12:48:48.503Z,4.20
2024-03-07T12:51:21.124Z,4.62
2024-03-07T12:53:53.439Z,4.40
2024-03-07T12:56:21.543Z,4.05
2024-03-07T12:58:50.761Z,3.95
2024-03-07T13:01:20.399Z,4.43
2024-03-07T13:03:49.334Z,4.70
2024-03-07T13:06:21.113Z,4.05
2024-03-07T13:08:49.170Z,4.80
2024-03-07T13:11:17.189Z,5.03
2024-03-07T13:13:45.106Z,4.80
2024-03-07T13:16:13.222Z,3.95
2024-03-07T13:18:41.287Z,4.18
2024-03-07T13:21:11.956Z,4.53
2024-03-07T13:23:41.134Z,4.78
2024-03-07T13:26:17.791Z,3.63
2024-03-07T13:28:45.983Z,4.28
2024-03-07T13:31:13.822Z,4.60
2024-03-07T13:33:41.910Z,5.37
2024-03-07T13:36:11.058Z,5.20
2024-03-07T13:38:39.561Z,4.30
2024-03-07T13:41:07.697Z,5.57
2024-03-07T13:43:36.176Z,5.10
2024-03-07T13:46:03.898Z,4.93
2024-03-07T13:48:33.970Z,4.80
2024-03-07T13:51:02.007Z,4.50
2024-03-07T13:53:33.271Z,4.50
2024-03-07T13:56:08.343Z,4.68
2024-03-07T13:58:46.674Z,4.50
2024-03-07T14:02:05.198Z,4.75
2024-03-07T14:04:51.801Z,4.43
2024-03-07T14:07:58.339Z,4.25
2024-03-07T14:11:05.266Z,4.85
2024-03-07T14:14:01.956Z,5.07
2024-03-07T14:16:57.740Z,4.95
2024-03-07T14:19:46.720Z,4.33
2024-03-07T14:22:51.424Z,4.40
2024-03-07T14:25:33.589Z,4.70
2024-03-07T14:28:30.303Z,4.65
2024-03-07T14:30:59.533Z,4.75
2024-03-07T14:33:36.529Z,4.27
2024-03-07T14:36:09.318Z,4.18
2024-03-07T14:38:55.416Z,4.30
2024-03-07T14:42:02.097Z,4.10
2024-03-07T14:44:30.077Z,4.22
2024-03-07T14:47:01.832Z,4.23
2024-03-07T14:49:29.782Z,4.70
2024-03-07T14:52:00.786Z,4.30
2024-03-07T14:54:30.008Z,4.68
2024-03-07T14:56:58.131Z,4.87
2024-03-07T14:59:27.220Z,4.23
2024-03-07T15:01:54.998Z,4.18
2024-03-07T15:04:23.993Z,4.95
2024-03-07T15:06:53.815Z,4.82
2024-03-07T15:09:21.701Z,5.22
2024-03-07T15:11:50.571Z,4.57
2024-03-07T15:14:23.025Z,5.30
2024-03-07T15:16:58.379Z,4.70
2024-03-07T15:19:25.929Z,4.45
2024-03-07T15:21:53.838Z,5.18
2024-03-07T15:24:22.692Z,5.43
2024-03-07T15:26:51.223Z,5.12
2024-03-07T15:29:23.052Z,4.97
2024-03-07T15:31:51.126Z,5.25
2024-03-07T15:34:18.905Z,5.82
2024-03-07T15:36:47.845Z,4.90
2024-03-07T15:39:27.712Z,5.95
2024-03-07T15:41:56.041Z,5.53
2024-03-07T15:44:26.681Z,5.87
2024-03-07T15:46:54.405Z,5.78
2024-03-07T15:49:22.520Z,5.30
2024-03-07T15:51:51.201Z,6.10
2024-03-07T15:54:19.381Z,6.53
2024-03-07T15:56:49.867Z,6.40
2024-03-07T15:59:18.151Z,7.57
2024-03-07T16:01:46.224Z,5.90
2024-03-07T16:04:14.121Z,5.18
2024-03-07T16:06:45.203Z,5.40
2024-03-07T16:09:14.902Z,5.43
2024-03-07T16:11:43.146Z,5.60
2024-03-07T16:14:11.773Z,5.60
2024-03-07T16:16:42.432Z,5.05
2024-03-07T16:19:11.538Z,6.55
2024-03-07T16:21:39.601Z,6.43
2024-03-07T16:24:09.588Z,4.57
2024-03-07T16:26:37.684Z,4.87
2024-03-07T16:29:06.194Z,4.60
2024-03-07T16:31:33.975Z,5.43
2024-03-07T16:34:02.076Z,4.78
2024-03-07T16:36:29.888Z,5.22
2024-03-07T16:38:57.846Z,5.03
2024-03-07T16:41:25.787Z,5.20
2024-03-07T16:43:53.276Z,4.78
2024-03-07T16:46:21.573Z,5.30
2024-03-07T16:48:50.555Z,5.35
2024-03-07T16:51:18.495Z,5.23
2024-03-07T16:53:46.172Z,5.10
2024-03-07T16:56:15.819Z,5.43
2024-03-07T16:58:43.404Z,6.85
2024-03-07T17:01:11.215Z,8.07
2024-03-07T17:03:39.179Z,7.87
2024-03-07T17:06:11.009Z,6.47
2024-03-07T17:08:39.496Z,6.37
2024-03-07T17:11:07.921Z,5.82
2024-03-07T17:13:38.036Z,6.22
2024-03-07T17:16:06.477Z,6.27
2024-03-07T17:18:35.709Z,6.00
2024-03-07T17:21:03.784Z,5.10
2024-03-07T17:23:31.870Z,5.78
2024-03-07T17:25:59.784Z,5.75
2024-03-07T17:28:28.151Z,5.13
2024-03-07T17:30:57.033Z,5.30
2024-03-07T17:33:27.146Z,4.78
2024-03-07T17:35:55.377Z,4.72
2024-03-07T17:38:23.304Z,4.70
2024-03-07T17:40:50.944Z,5.23
2024-03-07T17:43:18.534Z,5.10
2024-03-07T17:45:46.598Z,4.90
2024-03-07T17:48:14.699Z,4.12
2024-03-07T17:50:44.923Z,5.03
2024-03-07T17:53:15.079Z,4.07
2024-03-07T17:55:45.541Z,4.00
2024-03-07T17:58:15.672Z,3.97
2024-03-07T18:00:46.087Z,4.30
2024-03-07T18:03:15.420Z,4.30
2024-03-07T18:05:50.296Z,4.20
2024-03-07T18:08:34.754Z,4.25
2024-03-07T18:11:07.528Z,4.93
2024-03-07T18:13:37.149Z,5.07
2024-03-07T18:16:05.281Z,4.68
2024-03-07T18:18:33.652Z,4.13
2024-03-07T18:21:02.559Z,4.55
2024-03-07T18:23:30.577Z,4.60
2024-03-07T18:26:01.036Z,4.12
2024-03-07T18:28:28.899Z,3.87
2024-03-07T18:31:01.077Z,4.00
2024-03-07T18:33:30.290Z,4.10
2024-03-07T18:35:58.244Z,4.55
2024-03-07T18:38:27.565Z,4.45
2024-03-07T18:40:55.541Z,4.90
2024-03-07T18:43:23.018Z,4.13
2024-03-07T18:45:52.430Z,4.57
2024-03-07T18:48:20.342Z,4.60
2024-03-07T18:50:49.945Z,4.57
2024-03-07T18:53:21.511Z,4.35
2024-03-07T18:55:51.492Z,4.27
2024-03-07T18:58:23.495Z,3.72
2024-03-07T19:00:51.902Z,3.65
2024-03-07T19:03:23.188Z,3.30
2024-03-07T19:05:53.389Z,3.67
2024-03-07T19:08:21.121Z,3.20
2024-03-07T19:10:50.694Z,3.75
2024-03-07T19:13:20.893Z,3.60
2024-03-07T19:15:50.105Z,2.97
2024-03-07T19:18:18.365Z,2.83
2024-03-07T19:20:47.641Z,3.27
2024-03-07T19:23:18.168Z,2.80
2024-03-07T19:25:51.854Z,3.40
2024-03-07T19:28:19.875Z,3.12
2024-03-07T19:30:51.423Z,3.78
2024-03-07T19:33:21.809Z,3.57
2024-03-07T19:35:52.932Z,3.60
2024-03-07T19:38:20.829Z,4.20
2024-03-07T19:40:51.177Z,4.53
2024-03-07T19:43:25.522Z,4.12
2024-03-07T19:45:56.388Z,4.60
2024-03-07T19:48:26.460Z,4.57
2024-03-07T19:50:58.819Z,3.92
2024-03-07T19:53:27.340Z,4.32
2024-03-07T19:55:55.360Z,4.10
2024-03-07T19:58:25.814Z,4.73
2024-03-07T20:00:54.446Z,4.35
2024-03-07T20:03:23.632Z,4.65
2024-03-07T20:05:55.469Z,4.50
2024-03-07T20:08:28.955Z,4.70
2024-03-07T20:10:59.459Z,4.03
2024-03-07T20:13:28.027Z,4.70
2024-03-07T20:15:59.422Z,4.45
2024-03-07T20:18:29.821Z,4.18
2024-03-07T20:20:58.520Z,4.22
2024-03-07T20:23:28.938Z,4.30
2024-03-07T20:25:57.251Z,4.65
2024-03-07T20:28:24.806Z,4.12
2024-03-07T20:30:53.146Z,4.40
2024-03-07T20:33:22.186Z,4.22
2024-03-07T20:35:52.141Z,4.00
2024-03-07T20:38:22.666Z,3.95
2024-03-07T20:40:53.247Z,4.28
2024-03-07T20:43:21.279Z,3.55
2024-03-07T20:45:49.370Z,4.35
2024-03-07T20:48:17.530Z,5.00
2024-03-07T20:50:45.446Z,5.07
2024-03-07T20:53:14.259Z,4.43
2024-03-07T20:55:43.394Z,4.80
2024-03-07T20:58:12.143Z,4.50
2024-03-07T21:00:46.749Z,3.93
2024-03-07T21:03:24.079Z,4.47
2024-03-07T21:05:52.941Z,4.37
2024-03-07T21:08:21.023Z,4.43
2024-03-07T21:10:49.573Z,4.22
2024-03-07T21:13:21.786Z,3.80
2024-03-07T21:15:50.131Z,3.65
2024-03-07T21:18:20.426Z,4.68
2024-03-07T21:20:48.670Z,4.78
2024-03-07T21:23:18.968Z,6.00
2024-03-07T21:25:47.075Z,5.17
2024-03-07T21:28:14.615Z,4.80
2024-03-07T21:30:43.783Z,4.50
2024-03-07T21:33:11.938Z,4.82
2024-03-07T21:35:42.215Z,3.80
2024-03-07T21:38:12.309Z,3.93
2024-03-07T21:40:40.062Z,5.18
2024-03-07T21:43:08.212Z,5.68
2024-03-07T21:45:38.070Z,4.82
2024-03-07T21:48:08.043Z,5.10
2024-03-07T21:50:37.026Z,5.27
2024-03-07T21:53:04.932Z,5.07
2024-03-07T21:55:32.462Z,5.10
2024-03-07T21:58:00.245Z,4.65
2024-03-07T22:00:29.651Z,4.28
2024-03-07T22:03:01.272Z,4.80
2024-03-07T22:05:31.601Z,5.45
2024-03-07T22:08:01.229Z,6.20
2024-03-07T22:10:30.692Z,6.60
2024-03-07T22:12:58.673Z,5.78
2024-03-07T22:15:27.634Z,5.40
2024-03-07T22:17:55.790Z,4.80
2024-03-07T22:20:25.524Z,4.70
2024-03-07T22:22:54.282Z,4.87
2024-03-07T22:25:23.333Z,4.37
2024-03-07T22:27:52.771Z,4.10
2024-03-07T22:30:24.700Z,4.37
2024-03-07T22:32:53.717Z,5.05
2024-03-07T22:35:22.674Z,4.37
2024-03-07T22:37:54.058Z,4.62
2024-03-07T22:40:28.474Z,4.70
2024-03-07T22:42:56.467Z,4.00
2024-03-07T22:45:24.771Z,4.30
2024-03-07T22:47:54.197Z,4.70
2024-03-07T22:50:28.851Z,4.00
2024-03-07T22:53:00.259Z,5.60
2024-03-07T22:55:28.998Z,4.55
2024-03-07T22:57:56.981Z,4.65
2024-03-07T23:00:26.058Z,4.97
2024-03-07T23:02:54.163Z,5.68
2024-03-07T23:05:22.181Z,5.10
2024-03-07T23:07:51.478Z,5.43
2024-03-07T23:10:22.039Z,5.30
2024-03-07T23:12:51.526Z,4.93
2024-03-07T23:15:25.129Z,5.90
2024-03-07T23:17:55.621Z,5.27
2024-03-07T23:20:25.543Z,5.25
2024-03-07T23:22:59.075Z,4.78
2024-03-07T23:25:27.896Z,5.05
2024-03-07T23:27:56.688Z,5.50
2024-03-07T23:30:27.862Z,5.50
2024-03-07T23:32:59.795Z,6.43
2024-03-07T23:35:28.051Z,5.53
2024-03-07T23:37:56.169Z,6.12
2024-03-07T23:40:23.974Z,6.40
2024-03-07T23:42:52.821Z,5.50
2024-03-07T23:45:25.126Z,6.25
2024-03-07T23:47:53.048Z,6.30
2024-03-07T23:50:21.307Z,5.95
2024-03-07T23:52:49.070Z,5.65
2024-03-07T23:55:17.531Z,5.27
2024-03-07T23:57:46.777Z,5.57
